首页
METAR-TAF:

METAR-TAF

机场 :

法兰克福机场

法兰克福, 德国

纬度: 50-03N, 经度: 008-36E, 海拔: 111米

当前天气观测

该预报发布于33分钟前的14:50 UTC
风速4节,风向,在西北东北之间变化
温度 9°C
湿度 31%
气压 1020 hPa
能见度10公里或以上
1500米以下无云,无积雨云

METAR: EDDF 071450Z 01004KT 320V050 CAVOK 09/M07 Q1020 NOSIG

时间: 16:23 (15:23 UTC)

预报

该预报发布于4小时和23分钟前的11:00 UTC
预报有效从07日的 12点(UTC)到 08日的 18点(UTC)
风速5节,风向东北
能见度10公里或以上
1500米以下无云,无积雨云
成为
从 08日的 06点(UTC)到 08日的 09点(UTC)
多云层高于3500英尺

TAF: EDDF 071100Z 0712/0818 05005KT CAVOK BECMG 0806/0809 BKN035

超过4000个机场的气象观测和天气预报(METAR&TAF报告)。

可查询的气象台以黄色和红色小点在地图上表示。

将鼠标移到小点上方,可查看气象台名称。

然后点击查看天气观测和预报。

如需切换地图:点击带黑十字的绿色按钮放大地图;点击带横线的绿色按钮缩小地图;或者点击绿色箭头查看邻近地区的地图。


METAR-TAF: